Richland, South Dakota
Current Conditions -  °F | °C
As of 2:35 PM on Friday 19 Dec 2014 (Local Time) from KLRJ Reporting Station
Overcast Overcast  
Wind Chill: 24°   Ceiling: 1400
Heat Index: 34°   Visibility: 9mi
Dew Point: 28°   Wind: 14mph
Humidity: 81%   Direction: 190°S
Pressure: 30.12"   Gusts: NA
Location:  42.7901°N, 96.6907°W
Report Text: KLRJ 192035Z AUTO 19012KT 9SM OVC014 01/M02 A3012 RMK AO2
Loading
Personal Weather Stations






























Interactive Weather Map New forecast layout! Learn more

10-Day Weather Forecast

Advertisements
Track Severe Weather on mobile